Time;durP1;ratioP1;P1;durP2;ratioP2;P2;SDS_P1;SDS_P2;PMS_P1;PMS_P2;Temp;Humidity;BMP_temperature;BMP_pressure;BME280_temperature;BME280_humidity;BME280_pressure;Samples;Min_cycle;Max_cycle;Signal;HPM_P1;HPM_P2
2022/03/23 00:00:51;;;;;;;25.07;13.53;;;9.80;80.40;;;;;;5043764;28;20636;-69
2022/03/23 00:03:17;;;;;;;23.10;13.57;;;9.80;80.60;;;;;;5022043;28;20256;-72
2022/03/23 00:05:43;;;;;;;19.60;11.30;;;9.70;80.60;;;;;;5034211;28;20353;-71
2022/03/23 00:08:09;;;;;;;19.07;12.43;;;9.70;80.70;;;;;;5029275;28;20223;-69
2022/03/23 00:10:36;;;;;;;17.70;12.70;;;9.60;80.60;;;;;;5042475;28;20534;-69
2022/03/23 00:13:03;;;;;;;20.37;12.07;;;9.60;80.70;;;;;;5022584;28;20959;-69
2022/03/23 00:15:30;;;;;;;22.20;12.60;;;9.60;80.50;;;;;;5010720;28;20479;-70
2022/03/23 00:17:57;;;;;;;17.00;11.10;;;9.60;80.70;;;;;;5041544;28;20481;-70
2022/03/23 00:20:24;;;;;;;21.23;12.47;;;9.50;81.10;;;;;;5028615;28;20982;-69
2022/03/23 00:22:51;;;;;;;18.40;12.20;;;9.40;81.00;;;;;;5027053;28;20467;-70
2022/03/23 00:25:17;;;;;;;16.87;11.83;;;9.40;80.50;;;;;;5014094;28;20454;-72
2022/03/23 00:27:42;;;;;;;23.77;13.23;;;9.40;80.50;;;;;;5013900;28;21175;-69
2022/03/23 00:30:10;;;;;;;20.07;11.83;;;9.40;80.80;;;;;;5007038;28;20456;-72
2022/03/23 00:32:36;;;;;;;18.27;10.80;;;9.40;81.10;;;;;;5032162;28;20223;-68
2022/03/23 00:35:02;;;;;;;22.30;13.00;;;9.40;81.00;;;;;;5021433;28;20455;-73
2022/03/23 00:37:28;;;;;;;18.10;11.20;;;9.40;81.20;;;;;;5030372;28;20459;-69
2022/03/23 00:39:54;;;;;;;17.83;11.53;;;9.30;80.90;;;;;;5018480;28;20466;-69
2022/03/23 00:42:20;;;;;;;21.60;11.80;;;9.30;81.10;;;;;;5012499;28;20227;-68
2022/03/23 00:44:46;;;;;;;18.17;11.60;;;9.20;81.10;;;;;;5037212;28;20300;-69
2022/03/23 00:47:11;;;;;;;22.87;12.67;;;9.20;81.30;;;;;;5041811;28;20232;-71
2022/03/23 00:49:38;;;;;;;17.50;11.23;;;9.20;81.50;;;;;;5019464;28;20275;-68
2022/03/23 00:52:06;;;;;;;17.57;11.27;;;9.20;81.50;;;;;;5032921;28;20228;-71
2022/03/23 00:54:36;;;;;;;18.80;11.13;;;9.10;81.20;;;;;;5033691;28;20517;-69
2022/03/23 00:57:06;;;;;;;20.67;11.67;;;9.10;81.30;;;;;;5033372;28;20460;-69
2022/03/23 00:59:32;;;;;;;17.57;10.97;;;9.10;81.40;;;;;;5035467;28;20521;-71
2022/03/23 01:01:58;;;;;;;20.27;11.63;;;9.10;81.40;;;;;;5038227;28;20475;-69
2022/03/23 01:04:25;;;;;;;16.43;11.10;;;9.00;81.50;;;;;;5028558;28;20455;-70
2022/03/23 01:06:53;;;;;;;19.40;11.80;;;9.00;82.30;;;;;;5024231;28;20467;-69
2022/03/23 01:09:22;;;;;;;17.63;11.60;;;9.00;81.60;;;;;;5036931;28;20459;-68
2022/03/23 01:11:53;;;;;;;15.97;10.67;;;8.90;81.40;;;;;;5031970;28;20478;-69
2022/03/23 01:14:22;;;;;;;22.63;11.47;;;8.90;81.50;;;;;;5016000;28;20471;-75
2022/03/23 01:16:50;;;;;;;19.20;11.87;;;8.90;81.70;;;;;;5014665;28;20555;-72
2022/03/23 01:19:17;;;;;;;18.60;11.17;;;8.80;81.70;;;;;;5023313;28;20476;-69
2022/03/23 01:21:44;;;;;;;22.10;11.97;;;8.70;82.00;;;;;;5033091;28;20470;-71
2022/03/23 01:24:12;;;;;;;19.33;12.17;;;8.70;82.10;;;;;;5021505;28;20538;-71
2022/03/23 01:26:38;;;;;;;20.90;11.43;;;8.70;82.20;;;;;;5035924;28;20593;-69
2022/03/23 01:29:04;;;;;;;15.50;10.47;;;8.70;82.20;;;;;;5048871;28;20223;-68
2022/03/23 01:31:30;;;;;;;20.40;11.30;;;8.70;82.40;;;;;;5038448;28;20219;-69
2022/03/23 01:33:59;;;;;;;17.53;11.60;;;8.70;82.30;;;;;;5016616;28;20510;-68
2022/03/23 01:36:31;;;;;;;20.17;11.30;;;8.70;83.00;;;;;;5030317;28;20448;-71
2022/03/23 01:38:58;;;;;;;14.90;9.57;;;8.70;82.40;;;;;;5015305;28;20487;-69
2022/03/23 01:41:25;;;;;;;19.00;11.70;;;8.60;82.40;;;;;;5036277;28;20968;-70
2022/03/23 01:43:50;;;;;;;18.83;11.70;;;8.60;82.50;;;;;;5017655;28;20495;-67
2022/03/23 01:46:18;;;;;;;20.90;12.10;;;8.60;82.40;;;;;;5011078;28;20506;-71
2022/03/23 01:48:46;;;;;;;21.73;11.73;;;8.60;82.40;;;;;;5034523;28;20223;-70
2022/03/23 01:51:13;;;;;;;19.03;10.50;;;8.50;82.40;;;;;;5034977;28;20470;-70
2022/03/23 01:53:38;;;;;;;18.63;10.97;;;8.50;82.40;;;;;;5022134;28;20458;-73
2022/03/23 01:56:05;;;;;;;18.07;11.53;;;8.40;82.30;;;;;;5043643;28;20477;-70
2022/03/23 01:58:31;;;;;;;22.07;11.67;;;8.40;82.40;;;;;;5024058;28;20240;-70
2022/03/23 02:00:57;;;;;;;16.33;10.67;;;8.40;82.30;;;;;;5052020;28;20447;-70
2022/03/23 02:03:25;;;;;;;21.70;12.37;;;8.40;82.50;;;;;;5034088;28;20481;-70
2022/03/23 02:05:52;;;;;;;23.23;12.67;;;8.40;82.80;;;;;;5034690;28;20463;-70
2022/03/23 02:08:19;;;;;;;21.80;11.40;;;8.30;82.70;;;;;;5025439;28;20452;-68
2022/03/23 02:10:47;;;;;;;19.97;11.70;;;8.30;82.80;;;;;;5041831;28;20458;-74
2022/03/23 02:13:14;;;;;;;23.50;13.13;;;8.30;82.80;;;;;;5018279;28;20460;-68
2022/03/23 02:15:40;;;;;;;18.03;12.13;;;8.30;82.90;;;;;;5025507;28;20460;-70
2022/03/23 02:18:06;;;;;;;18.47;10.30;;;8.20;82.80;;;;;;5036020;28;20247;-68
2022/03/23 02:20:32;;;;;;;20.27;11.70;;;8.20;82.90;;;;;;5028409;28;20212;-71
2022/03/23 02:22:59;;;;;;;17.90;11.67;;;8.20;83.00;;;;;;5040168;28;20451;-72
2022/03/23 02:25:27;;;;;;;18.00;11.40;;;8.10;83.00;;;;;;5042256;28;20451;-68
2022/03/23 02:27:55;;;;;;;19.57;11.67;;;8.10;83.20;;;;;;5027665;28;20248;-68
2022/03/23 02:30:21;;;;;;;17.60;10.40;;;8.10;83.20;;;;;;5036548;28;20463;-70
2022/03/23 02:32:48;;;;;;;20.20;11.40;;;8.10;83.30;;;;;;5019496;28;20514;-70
2022/03/23 02:35:15;;;;;;;16.43;10.13;;;8.00;83.30;;;;;;5021665;28;20466;-70
2022/03/23 02:37:42;;;;;;;17.97;11.27;;;8.00;83.30;;;;;;5029929;28;20475;-72
2022/03/23 02:40:11;;;;;;;15.60;10.93;;;8.00;83.50;;;;;;5034534;28;20462;-69
2022/03/23 02:42:38;;;;;;;18.73;10.83;;;8.00;83.50;;;;;;5044296;28;20470;-70
2022/03/23 02:45:10;;;;;;;20.20;10.50;;;7.90;83.30;;;;;;5031394;28;20459;-70
2022/03/23 02:47:36;;;;;;;14.90;9.50;;;7.90;83.40;;;;;;5044136;28;20470;-73
2022/03/23 02:50:02;;;;;;;15.07;9.57;;;7.90;83.50;;;;;;5030251;28;20455;-68
2022/03/23 02:52:28;;;;;;;15.23;10.30;;;7.80;83.50;;;;;;5042730;28;20754;-71
2022/03/23 03:03:33;;;;;;;19.27;10.27;;;7.80;83.80;;;;;;5033164;28;20451;-69
2022/03/23 03:06:01;;;;;;;22.70;10.70;;;7.70;83.60;;;;;;5041523;28;20450;-69
2022/03/23 03:08:45;;;;;;;15.33;10.73;;;7.60;83.60;;;;;;5044744;28;20307;-70
2022/03/23 03:11:11;;;;;;;16.97;10.37;;;7.60;83.90;;;;;;5025886;28;20452;-70
2022/03/23 03:13:39;;;;;;;16.67;11.53;;;7.60;83.80;;;;;;5027761;28;20467;-68
2022/03/23 03:16:05;;;;;;;19.37;10.70;;;7.60;83.70;;;;;;5034216;28;20486;-73
2022/03/23 03:18:32;;;;;;;22.07;10.37;;;7.60;83.70;;;;;;5014641;28;20590;-68
2022/03/23 03:20:58;;;;;;;16.67;9.93;;;7.60;83.90;;;;;;5036501;28;20475;-70
2022/03/23 03:23:25;;;;;;;18.67;10.53;;;7.50;83.70;;;;;;5035530;28;20459;-70
2022/03/23 03:25:51;;;;;;;22.00;12.13;;;7.50;83.90;;;;;;5039990;28;20454;-69
2022/03/23 03:28:17;;;;;;;24.47;11.60;;;7.50;84.00;;;;;;5023343;28;20467;-70
2022/03/23 03:30:42;;;;;;;19.63;10.90;;;7.50;84.00;;;;;;5034846;28;20232;-69
2022/03/23 03:33:08;;;;;;;19.43;11.50;;;7.40;83.90;;;;;;5037240;28;20311;-69
2022/03/23 03:35:34;;;;;;;17.50;11.13;;;7.40;83.90;;;;;;5023135;28;20233;-69
2022/03/23 03:37:59;;;;;;;15.80;9.97;;;7.40;83.90;;;;;;5022459;28;20221;-68
2022/03/23 03:40:25;;;;;;;22.43;11.17;;;7.40;83.90;;;;;;5040179;28;20217;-68
2022/03/23 03:42:51;;;;;;;19.13;10.83;;;7.40;84.00;;;;;;5030035;28;20219;-70
2022/03/23 03:45:16;;;;;;;18.93;12.00;;;7.40;84.10;;;;;;5024448;28;20735;-71
2022/03/23 03:47:42;;;;;;;19.10;11.03;;;7.40;84.10;;;;;;5013095;28;20299;-69
2022/03/23 03:50:09;;;;;;;18.90;10.70;;;7.30;83.90;;;;;;5024065;28;20228;-68
2022/03/23 03:52:34;;;;;;;17.53;10.90;;;7.30;84.00;;;;;;5038765;28;20247;-67
2022/03/23 03:55:00;;;;;;;16.80;10.43;;;7.30;84.20;;;;;;5033672;28;20502;-67
2022/03/23 03:57:26;;;;;;;20.97;11.77;;;7.30;84.40;;;;;;5024903;28;20205;-72
2022/03/23 03:59:51;;;;;;;16.77;11.27;;;7.30;84.50;;;;;;5032369;28;20579;-71
2022/03/23 04:02:19;;;;;;;20.67;10.70;;;7.20;84.40;;;;;;5026737;28;20299;-69
2022/03/23 04:04:44;;;;;;;16.00;9.60;;;7.20;84.50;;;;;;5010292;28;20248;-70
2022/03/23 04:07:10;;;;;;;19.07;11.27;;;7.20;84.60;;;;;;5041060;28;20483;-72
2022/03/23 04:09:36;;;;;;;18.17;11.20;;;7.20;84.60;;;;;;5023064;28;20776;-71
2022/03/23 04:12:02;;;;;;;21.27;11.57;;;7.20;84.70;;;;;;5030108;28;20223;-70
2022/03/23 04:14:28;;;;;;;16.77;11.20;;;7.20;84.90;;;;;;5032953;28;20226;-71
2022/03/23 04:16:54;;;;;;;18.13;12.30;;;7.10;84.70;;;;;;5021377;28;20460;-71
2022/03/23 04:19:20;;;;;;;16.87;9.57;;;7.10;84.70;;;;;;5025970;28;20649;-73
2022/03/23 04:21:46;;;;;;;20.17;11.50;;;7.10;84.80;;;;;;5033671;28;20541;-70
2022/03/23 04:24:11;;;;;;;16.37;10.13;;;7.00;85.60;;;;;;5026745;28;20221;-68
2022/03/23 04:26:37;;;;;;;17.80;11.37;;;6.90;85.10;;;;;;5029118;28;20308;-70
2022/03/23 04:29:03;;;;;;;22.50;11.90;;;6.90;85.20;;;;;;5043037;28;20290;-70
2022/03/23 04:31:29;;;;;;;19.70;11.47;;;6.90;85.20;;;;;;5025113;28;20221;-69
2022/03/23 04:33:54;;;;;;;17.60;11.03;;;6.90;85.10;;;;;;5029623;28;20221;-73
2022/03/23 04:36:20;;;;;;;19.03;10.60;;;6.90;85.30;;;;;;5030172;28;20228;-69
2022/03/23 04:38:46;;;;;;;20.63;11.23;;;6.90;85.30;;;;;;5024993;28;20683;-72
2022/03/23 04:41:12;;;;;;;17.30;10.50;;;6.90;85.30;;;;;;5028156;28;20455;-69
2022/03/23 04:43:38;;;;;;;17.37;10.53;;;6.90;85.40;;;;;;5028358;28;20254;-69
2022/03/23 04:46:05;;;;;;;17.57;11.80;;;6.90;85.40;;;;;;5026694;28;20228;-70
2022/03/23 04:48:31;;;;;;;22.53;11.17;;;6.90;85.40;;;;;;5025722;28;20494;-69
2022/03/23 04:50:57;;;;;;;22.30;12.23;;;6.90;85.40;;;;;;5025743;28;20452;-70
2022/03/23 04:53:23;;;;;;;19.13;10.17;;;6.90;85.50;;;;;;5027833;28;20902;-70
2022/03/23 04:55:49;;;;;;;17.97;10.60;;;6.80;85.10;;;;;;5045061;28;20209;-68
2022/03/23 04:58:15;;;;;;;18.00;9.90;;;6.80;85.40;;;;;;5026609;28;20475;-71
2022/03/23 05:00:41;;;;;;;18.13;11.23;;;6.80;85.60;;;;;;5029885;28;20451;-69
2022/03/23 05:03:07;;;;;;;19.37;11.60;;;6.80;85.50;;;;;;5036288;28;20307;-68
2022/03/23 05:05:33;;;;;;;21.77;12.67;;;6.80;85.60;;;;;;5036066;28;20212;-68
2022/03/23 05:07:58;;;;;;;20.93;11.83;;;6.70;85.50;;;;;;5040262;28;20458;-73
2022/03/23 05:10:24;;;;;;;23.07;12.77;;;6.70;85.50;;;;;;5049211;28;20212;-69
2022/03/23 05:12:51;;;;;;;19.23;11.63;;;6.70;85.70;;;;;;5034457;28;20220;-72
2022/03/23 05:15:17;;;;;;;19.87;11.40;;;6.70;85.80;;;;;;5032593;28;20224;-69
2022/03/23 05:17:45;;;;;;;21.90;12.70;;;6.70;86.10;;;;;;5031654;28;20466;-69
2022/03/23 05:20:14;;;;;;;20.40;11.07;;;6.60;86.10;;;;;;5032997;28;20475;-69
2022/03/23 05:22:39;;;;;;;18.03;11.37;;;6.60;86.10;;;;;;5039629;28;20529;-74
2022/03/23 05:25:06;;;;;;;21.43;11.70;;;6.60;86.10;;;;;;5038883;28;20462;-69
2022/03/23 05:27:37;;;;;;;20.73;12.00;;;6.60;86.10;;;;;;5034343;28;20302;-69
2022/03/23 05:30:07;;;;;;;24.57;11.93;;;6.50;86.10;;;;;;5035931;28;20446;-69
2022/03/23 05:32:33;;;;;;;19.77;12.70;;;6.50;86.30;;;;;;5032714;28;20505;-73
2022/03/23 05:34:59;;;;;;;18.13;11.50;;;6.50;86.50;;;;;;5046916;28;20550;-71
2022/03/23 05:37:24;;;;;;;18.33;10.93;;;6.40;86.50;;;;;;5032103;28;20558;-70
2022/03/23 05:39:50;;;;;;;22.00;12.67;;;6.40;86.40;;;;;;5032799;28;20243;-69
2022/03/23 05:42:16;;;;;;;23.07;12.57;;;6.40;86.30;;;;;;5032930;28;20212;-71
2022/03/23 05:44:41;;;;;;;17.07;11.93;;;6.40;86.50;;;;;;5047328;28;20587;-69
2022/03/23 05:47:07;;;;;;;20.70;11.63;;;6.40;86.50;;;;;;5034577;28;20766;-70
2022/03/23 05:49:33;;;;;;;20.83;11.93;;;6.40;86.50;;;;;;5023072;28;20212;-70
2022/03/23 05:51:59;;;;;;;18.73;11.90;;;6.40;86.50;;;;;;5042968;28;20299;-70
2022/03/23 05:54:25;;;;;;;23.40;11.10;;;6.40;86.60;;;;;;5030170;28;20231;-68
2022/03/23 05:56:52;;;;;;;19.37;11.20;;;6.40;86.70;;;;;;5038266;28;20478;-69
2022/03/23 05:59:18;;;;;;;20.50;10.40;;;6.40;86.80;;;;;;5037196;28;20475;-74
2022/03/23 06:01:45;;;;;;;21.73;13.23;;;6.40;86.90;;;;;;5050674;28;20473;-71
2022/03/23 06:04:12;;;;;;;22.50;14.83;;;6.30;87.40;;;;;;5035401;28;20467;-71
2022/03/23 06:06:38;;;;;;;17.87;12.53;;;6.30;87.10;;;;;;5033780;28;20491;-71
2022/03/23 06:09:05;;;;;;;18.47;11.33;;;6.20;87.40;;;;;;5028882;28;20546;-73
2022/03/23 06:11:31;;;;;;;17.07;11.60;;;6.30;87.30;;;;;;5031684;28;20466;-66
2022/03/23 06:13:57;;;;;;;23.10;14.53;;;6.30;87.40;;;;;;5030321;28;20529;-68
2022/03/23 06:16:23;;;;;;;41.67;24.37;;;6.30;87.60;;;;;;5025625;28;20220;-69
2022/03/23 06:18:49;;;;;;;38.10;21.00;;;6.30;87.50;;;;;;5028825;28;20228;-68
2022/03/23 06:21:15;;;;;;;37.30;19.87;;;6.30;87.60;;;;;;5025508;28;21085;-70
2022/03/23 06:23:40;;;;;;;27.60;16.80;;;6.30;87.70;;;;;;5039039;28;20244;-69
2022/03/23 06:26:06;;;;;;;23.40;13.47;;;6.30;87.70;;;;;;5046357;28;20223;-70
2022/03/23 06:28:32;;;;;;;23.27;13.80;;;6.30;87.70;;;;;;5004524;28;20222;-70
2022/03/23 06:30:58;;;;;;;25.33;14.47;;;6.30;87.80;;;;;;5042067;28;20228;-69
2022/03/23 06:33:24;;;;;;;20.20;12.50;;;6.30;87.90;;;;;;5038344;28;20223;-67
2022/03/23 06:35:51;;;;;;;20.37;10.70;;;6.30;88.50;;;;;;5049362;28;20219;-69
2022/03/23 06:38:17;;;;;;;19.97;11.33;;;6.30;89.00;;;;;;5027364;28;20228;-70
2022/03/23 06:40:43;;;;;;;19.57;11.30;;;6.30;88.50;;;;;;5049672;28;20523;-71
2022/03/23 06:43:09;;;;;;;18.17;11.00;;;6.40;88.50;;;;;;5033434;28;20455;-73
2022/03/23 06:45:35;;;;;;;22.93;12.47;;;6.40;88.50;;;;;;5040504;28;20836;-74
2022/03/23 06:48:02;;;;;;;20.90;14.27;;;6.30;89.30;;;;;;5036290;28;20470;-72
2022/03/23 06:50:27;;;;;;;22.60;13.67;;;6.40;89.80;;;;;;5031320;28;20462;-70
2022/03/23 06:52:53;;;;;;;25.43;14.70;;;6.40;89.60;;;;;;5032422;28;20448;-71
2022/03/23 06:55:19;;;;;;;24.10;15.30;;;6.40;89.50;;;;;;5034266;28;20719;-71
2022/03/23 06:57:45;;;;;;;20.93;14.17;;;6.40;89.50;;;;;;5041248;28;20220;-72
2022/03/23 07:00:14;;;;;;;23.10;15.03;;;6.40;89.50;;;;;;5027167;28;20224;-70
2022/03/23 07:02:44;;;;;;;22.40;13.23;;;6.40;89.80;;;;;;5028576;28;20703;-73
2022/03/23 07:05:11;;;;;;;21.00;14.40;;;6.40;90.10;;;;;;5025917;28;20490;-70
2022/03/23 07:07:37;;;;;;;23.97;14.07;;;6.50;90.10;;;;;;5048232;28;20559;-69
2022/03/23 07:10:04;;;;;;;29.90;14.07;;;6.50;90.30;;;;;;5029104;28;20448;-72
2022/03/23 07:12:30;;;;;;;20.03;12.30;;;6.50;90.40;;;;;;5014851;28;20458;-69
2022/03/23 07:14:56;;;;;;;21.07;13.40;;;6.50;90.30;;;;;;5036717;28;20439;-71
2022/03/23 07:17:22;;;;;;;24.60;13.20;;;6.60;90.50;;;;;;5012645;28;20452;-72
2022/03/23 07:19:47;;;;;;;20.77;12.53;;;6.60;90.60;;;;;;5024286;28;20286;-74
2022/03/23 07:22:15;;;;;;;31.83;12.70;;;6.60;90.80;;;;;;5029655;28;20229;-69
2022/03/23 07:24:42;;;;;;;23.30;13.83;;;6.60;91.00;;;;;;5029251;28;20227;-71
2022/03/23 07:27:08;;;;;;;26.60;13.63;;;6.70;91.30;;;;;;5038422;28;20832;-70
2022/03/23 07:29:35;;;;;;;23.50;13.30;;;6.70;91.40;;;;;;5033580;28;21002;-70
2022/03/23 07:32:01;;;;;;;22.93;13.13;;;6.80;91.30;;;;;;5033669;28;20541;-72
2022/03/23 07:34:27;;;;;;;23.70;13.57;;;6.80;91.30;;;;;;5033387;28;20590;-69
2022/03/23 07:36:52;;;;;;;22.20;12.33;;;6.80;91.40;;;;;;5023000;28;20538;-73
2022/03/23 07:39:21;;;;;;;21.63;12.13;;;6.90;91.70;;;;;;5032287;28;20271;-70
2022/03/23 07:41:50;;;;;;;21.50;12.73;;;6.90;91.90;;;;;;5029022;28;20571;-73
2022/03/23 07:44:18;;;;;;;24.90;12.80;;;7.00;92.40;;;;;;5043321;28;20458;-71
2022/03/23 07:46:44;;;;;;;19.80;11.30;;;7.00;92.20;;;;;;5011316;28;20584;-69
2022/03/23 07:49:10;;;;;;;19.47;12.40;;;7.10;92.60;;;;;;5038851;28;20555;-70
2022/03/23 07:51:36;;;;;;;25.20;13.03;;;7.20;92.90;;;;;;5039149;28;20534;-70
2022/03/23 07:54:01;;;;;;;21.83;13.20;;;7.20;92.90;;;;;;5031500;28;20800;-70
2022/03/23 07:56:27;;;;;;;20.03;13.37;;;7.30;93.10;;;;;;5031345;28;20224;-70
2022/03/23 07:58:53;;;;;;;25.50;13.63;;;7.30;93.10;;;;;;5041294;28;20312;-72
2022/03/23 08:01:18;;;;;;;23.47;14.20;;;7.40;93.40;;;;;;5030639;28;20685;-73
2022/03/23 08:03:44;;;;;;;25.20;13.30;;;7.50;93.70;;;;;;5026959;28;20235;-70
2022/03/23 08:06:09;;;;;;;29.23;15.13;;;7.50;93.70;;;;;;5028371;28;20208;-70
2022/03/23 08:08:35;;;;;;;29.00;15.13;;;7.60;93.90;;;;;;5026230;28;20269;-72
2022/03/23 08:11:01;;;;;;;21.97;14.23;;;7.70;94.30;;;;;;5023007;28;20209;-72
2022/03/23 08:13:27;;;;;;;23.60;14.90;;;7.80;94.40;;;;;;5023878;28;20579;-72
2022/03/23 08:15:52;;;;;;;18.83;13.60;;;7.90;94.80;;;;;;5013170;28;20612;-69
2022/03/23 08:18:21;;;;;;;30.03;14.53;;;7.90;94.20;;;;;;5031741;28;20224;-72
2022/03/23 08:20:48;;;;;;;23.67;14.20;;;8.00;94.70;;;;;;5029163;28;20219;-71
2022/03/23 08:23:16;;;;;;;21.80;13.47;;;8.10;94.50;;;;;;5032272;28;20455;-68
2022/03/23 08:25:43;;;;;;;19.87;12.97;;;8.20;95.30;;;;;;5032737;28;20462;-71
2022/03/23 08:28:11;;;;;;;20.93;12.37;;;8.30;95.20;;;;;;5032972;28;20443;-70
2022/03/23 08:30:37;;;;;;;18.10;12.37;;;8.40;95.60;;;;;;5023810;28;20456;-70
2022/03/23 08:33:05;;;;;;;19.40;11.83;;;8.50;95.60;;;;;;5024327;28;20459;-69
2022/03/23 08:35:31;;;;;;;19.87;13.37;;;8.50;95.60;;;;;;5023125;28;20474;-74
2022/03/23 08:37:57;;;;;;;19.40;12.97;;;8.60;95.70;;;;;;5024039;28;20470;-69
2022/03/23 08:40:24;;;;;;;18.60;12.17;;;8.70;95.90;;;;;;5025733;28;20554;-74
2022/03/23 08:42:49;;;;;;;23.10;13.10;;;8.90;96.20;;;;;;5024233;28;20475;-71
2022/03/23 08:45:16;;;;;;;19.40;11.00;;;9.00;96.30;;;;;;5022224;28;20444;-74
2022/03/23 08:47:43;;;;;;;20.50;12.27;;;9.10;96.40;;;;;;5019347;28;20238;-70
2022/03/23 08:50:11;;;;;;;22.43;12.13;;;9.20;96.40;;;;;;5042159;28;20458;-74
2022/03/23 08:52:38;;;;;;;24.10;13.60;;;9.30;96.60;;;;;;5028111;28;20991;-74
2022/03/23 08:55:07;;;;;;;18.83;12.70;;;9.50;97.00;;;;;;5037259;28;20461;-70
2022/03/23 08:57:33;;;;;;;18.37;12.00;;;9.60;97.10;;;;;;5028464;28;20533;-73
2022/03/23 08:59:59;;;;;;;19.20;13.97;;;9.70;97.10;;;;;;5028262;28;20551;-69
2022/03/23 09:02:24;;;;;;;22.97;13.80;;;9.80;97.10;;;;;;5021486;28;20706;-73
2022/03/23 09:04:50;;;;;;;26.13;14.67;;;10.00;96.70;;;;;;5037649;28;20231;-72
2022/03/23 09:07:16;;;;;;;21.60;13.80;;;10.20;96.60;;;;;;5018246;28;20221;-68
2022/03/23 09:09:42;;;;;;;23.20;13.60;;;10.30;96.40;;;;;;5028182;28;20219;-71
2022/03/23 09:12:09;;;;;;;18.20;12.93;;;10.40;96.40;;;;;;5032061;28;20239;-74
2022/03/23 09:14:34;;;;;;;18.57;12.60;;;10.50;96.40;;;;;;5032410;28;20458;-72
2022/03/23 09:17:00;;;;;;;21.07;11.80;;;10.60;96.00;;;;;;5033095;28;21070;-70
2022/03/23 09:19:26;;;;;;;18.97;12.30;;;10.70;96.30;;;;;;5028958;28;20267;-74
2022/03/23 09:21:51;;;;;;;18.97;11.90;;;10.80;96.10;;;;;;5029630;28;20228;-73
2022/03/23 09:24:19;;;;;;;17.53;11.10;;;10.90;95.90;;;;;;5018393;28;20242;-71
2022/03/23 09:26:45;;;;;;;18.90;11.33;;;11.00;95.90;;;;;;5030389;28;20227;-69
2022/03/23 09:29:12;;;;;;;16.90;10.50;;;11.20;95.90;;;;;;5026466;28;20522;-69
2022/03/23 09:31:38;;;;;;;15.07;9.97;;;11.30;95.10;;;;;;5033239;28;20462;-73
2022/03/23 09:34:05;;;;;;;15.60;11.10;;;11.50;94.80;;;;;;5039171;28;20507;-71
2022/03/23 09:39:17;;;;;;;18.90;10.70;;;11.70;94.50;;;;;;5040193;28;20459;-71
2022/03/23 09:41:45;;;;;;;17.27;10.70;;;11.80;94.80;;;;;;5025699;28;21999;-73
2022/03/23 09:44:11;;;;;;;15.13;10.30;;;11.90;95.10;;;;;;5023383;28;20495;-73
2022/03/23 09:46:37;;;;;;;14.40;10.90;;;12.10;95.20;;;;;;5036012;28;20458;-70
2022/03/23 09:49:06;;;;;;;19.13;11.73;;;12.20;95.50;;;;;;5027624;28;20462;-76
2022/03/23 09:51:33;;;;;;;21.60;13.30;;;12.40;95.40;;;;;;5036985;28;20278;-72
2022/03/23 09:54:00;;;;;;;19.60;11.30;;;12.50;95.10;;;;;;5034474;28;20458;-73
2022/03/23 09:56:25;;;;;;;18.67;13.27;;;12.60;95.20;;;;;;5027590;28;20463;-72
2022/03/23 09:58:51;;;;;;;19.70;12.60;;;12.70;94.90;;;;;;5024735;28;20463;-74
2022/03/23 10:01:29;;;;;;;16.97;10.93;;;12.80;94.90;;;;;;5034759;28;20285;-71
2022/03/23 10:04:07;;;;;;;18.50;11.97;;;13.00;94.50;;;;;;5031813;28;20253;-70
2022/03/23 10:06:50;;;;;;;19.60;11.30;;;13.10;94.10;;;;;;5030542;28;20456;-74
2022/03/23 10:09:53;;;;;;;17.70;11.27;;;13.20;94.00;;;;;;5026617;28;20836;-69
2022/03/23 10:12:34;;;;;;;18.20;12.20;;;13.30;93.90;;;;;;5027200;28;20468;-73
2022/03/23 10:15:24;;;;;;;16.63;10.80;;;13.50;93.80;;;;;;5034883;28;21035;-70
2022/03/23 10:18:26;;;;;;;20.00;10.90;;;13.60;93.00;;;;;;5028712;28;20797;-70
2022/03/23 10:20:51;;;;;;;21.73;11.23;;;13.70;92.90;;;;;;5025887;28;20499;-70
2022/03/23 10:23:21;;;;;;;15.80;11.13;;;13.80;92.50;;;;;;5042171;28;20497;-74
2022/03/23 10:25:49;;;;;;;18.03;10.93;;;14.00;93.20;;;;;;5029117;28;20308;-69
2022/03/23 10:28:16;;;;;;;16.10;10.90;;;14.10;92.10;;;;;;5027146;28;20464;-71
2022/03/23 10:30:43;;;;;;;18.13;10.33;;;14.20;91.30;;;;;;5052339;28;20466;-74
2022/03/23 10:33:22;;;;;;;15.97;10.20;;;14.30;91.30;;;;;;5029907;28;20452;-74
2022/03/23 10:35:49;;;;;;;17.70;9.53;;;14.30;91.40;;;;;;5024648;28;20510;-71
2022/03/23 10:38:17;;;;;;;20.17;12.47;;;14.40;91.20;;;;;;5029622;28;20474;-69
2022/03/23 10:40:45;;;;;;;16.67;11.67;;;14.30;90.90;;;;;;5033098;28;20785;-70
2022/03/23 10:43:13;;;;;;;15.57;11.23;;;14.50;91.00;;;;;;5021609;28;20468;-68
2022/03/23 10:45:39;;;;;;;18.10;11.10;;;14.50;90.90;;;;;;5028289;28;20460;-71
2022/03/23 10:48:16;;;;;;;19.57;11.67;;;14.70;90.60;;;;;;5029052;28;20459;-67
2022/03/23 10:50:54;;;;;;;15.90;11.23;;;14.80;90.60;;;;;;5043295;28;20625;-68
2022/03/23 10:53:40;;;;;;;18.77;12.37;;;14.90;90.80;;;;;;5034561;28;20484;-66
2022/03/23 10:56:06;;;;;;;13.43;11.10;;;14.90;90.30;;;;;;5042007;28;20461;-67
2022/03/23 10:58:34;;;;;;;22.83;12.00;;;15.10;89.90;;;;;;5022534;28;20507;-67
2022/03/23 11:01:03;;;;;;;17.07;12.37;;;15.20;90.50;;;;;;5030295;28;20455;-66
2022/03/23 11:03:36;;;;;;;18.97;11.97;;;15.40;90.20;;;;;;5005884;28;20879;-71
2022/03/23 11:06:02;;;;;;;20.37;12.47;;;15.40;89.40;;;;;;5026224;28;20491;-68
2022/03/23 11:08:28;;;;;;;17.07;11.53;;;15.50;89.40;;;;;;5026186;28;20541;-68
2022/03/23 11:16:48;;;;;;;13.90;11.40;;;15.70;89.20;;;;;;5031301;28;20539;-68
2022/03/23 11:19:24;;;;;;;18.00;12.23;;;15.90;90.10;;;;;;5020936;28;21033;-69
2022/03/23 11:22:01;;;;;;;17.27;11.47;;;16.00;89.40;;;;;;5036173;28;20458;-66
2022/03/23 11:24:41;;;;;;;15.53;11.03;;;16.20;89.20;;;;;;5025311;28;20461;-67
2022/03/23 11:27:18;;;;;;;15.30;11.33;;;16.50;87.80;;;;;;5020556;28;20991;-68
2022/03/23 11:29:46;;;;;;;15.67;12.10;;;16.80;86.70;;;;;;5029438;28;20445;-71
2022/03/23 11:32:14;;;;;;;16.77;12.30;;;16.90;85.60;;;;;;5015464;28;20523;-68
2022/03/23 11:34:42;;;;;;;15.60;12.30;;;16.90;85.80;;;;;;5028292;28;20472;-71
2022/03/23 11:37:08;;;;;;;14.73;11.00;;;17.00;85.80;;;;;;5029571;28;20969;-71
2022/03/23 11:39:35;;;;;;;21.10;13.87;;;17.20;84.90;;;;;;5031332;28;20892;-72
2022/03/23 11:42:03;;;;;;;18.70;12.57;;;17.40;85.20;;;;;;5034313;28;20469;-71
2022/03/23 11:44:29;;;;;;;14.13;10.87;;;17.40;85.20;;;;;;5027302;28;20499;-71
2022/03/23 11:47:05;;;;;;;17.20;11.97;;;17.50;84.10;;;;;;5024461;28;20549;-72
2022/03/23 11:49:54;;;;;;;17.20;11.97;;;17.50;85.50;;;;;;5021872;28;20729;-71
2022/03/23 11:52:51;;;;;;;17.23;13.37;;;17.60;85.00;;;;;;5021268;28;20485;-75
2022/03/23 11:55:37;;;;;;;16.33;13.50;;;17.60;84.10;;;;;;5031269;28;20526;-72
2022/03/23 11:58:22;;;;;;;17.07;12.80;;;17.60;83.00;;;;;;5043279;28;20455;-72
2022/03/23 12:00:52;;;;;;;14.80;11.37;;;17.60;82.80;;;;;;5024947;28;20559;-69
2022/03/23 12:03:53;;;;;;;16.17;11.90;;;17.50;83.90;;;;;;5038985;28;20467;-71
2022/03/23 12:06:24;;;;;;;13.90;10.90;;;17.70;82.70;;;;;;5022014;28;20458;-72
2022/03/23 12:08:57;;;;;;;14.07;11.10;;;18.00;82.30;;;;;;5024783;28;20474;-68
2022/03/23 12:11:44;;;;;;;18.17;12.40;;;18.10;80.00;;;;;;5017463;28;20497;-70
2022/03/23 12:14:21;;;;;;;15.40;11.73;;;18.20;81.00;;;;;;5040648;28;20464;-69
2022/03/23 12:16:50;;;;;;;19.37;13.07;;;18.20;81.70;;;;;;5032857;28;20470;-70
2022/03/23 12:19:51;;;;;;;14.93;12.30;;;18.20;80.20;;;;;;5018482;28;20529;-73
2022/03/23 12:22:29;;;;;;;18.77;11.73;;;18.10;79.20;;;;;;5036742;28;20454;-69
2022/03/23 12:25:04;;;;;;;18.10;11.63;;;18.10;79.00;;;;;;5029066;28;20585;-68
2022/03/23 12:27:45;;;;;;;16.63;11.67;;;18.30;79.40;;;;;;5030320;28;20447;-73
2022/03/23 12:30:16;;;;;;;14.13;10.73;;;18.50;78.70;;;;;;5033134;28;20535;-73
2022/03/23 12:32:41;;;;;;;14.57;11.60;;;18.80;78.80;;;;;;5032383;28;20581;-73
2022/03/23 12:35:08;;;;;;;19.17;12.77;;;18.90;79.50;;;;;;5033057;28;20611;-71
2022/03/23 12:37:42;;;;;;;16.40;11.87;;;18.70;76.50;;;;;;5032324;28;20259;-70
2022/03/23 12:40:11;;;;;;;14.63;12.63;;;18.60;74.80;;;;;;5024006;28;20463;-73
2022/03/23 12:42:46;;;;;;;16.43;11.10;;;18.50;77.10;;;;;;5029350;28;20463;-69
2022/03/23 12:45:28;;;;;;;14.57;9.90;;;18.50;76.30;;;;;;4995872;28;20526;-70
2022/03/23 12:47:55;;;;;;;15.20;11.03;;;18.50;77.60;;;;;;5028045;28;20467;-67
2022/03/23 12:59:16;;;;;;;15.50;10.00;;;19.20;72.40;;;;;;5024153;28;20466;-71
2022/03/23 13:01:42;;;;;;;10.97;9.67;;;19.40;74.70;;;;;;5030345;28;20475;-70
2022/03/23 13:04:07;;;;;;;11.57;9.17;;;19.60;74.80;;;;;;5016762;28;20484;-73